createdAt,value
2023-01-26T00:01:14.700Z,0.76
2023-01-26T00:04:57.387Z,0.77
2023-01-26T00:08:40.798Z,0.80
2023-01-26T00:12:23.476Z,0.77
2023-01-26T00:16:10.448Z,0.76
2023-01-26T00:19:55.171Z,0.74
2023-01-26T00:23:37.828Z,0.73
2023-01-26T00:27:20.525Z,0.70
2023-01-26T00:31:04.583Z,0.67
2023-01-26T00:34:48.664Z,0.61
2023-01-26T00:38:31.438Z,0.61
2023-01-26T00:42:15.839Z,0.61
2023-01-26T00:45:58.624Z,0.60
2023-01-26T00:49:41.358Z,0.59
2023-01-26T00:53:25.399Z,0.57
2023-01-26T00:57:08.262Z,0.50
2023-01-26T01:00:51.069Z,0.50
2023-01-26T01:04:33.827Z,0.50
2023-01-26T01:08:16.547Z,0.55
2023-01-26T01:12:00.592Z,0.52
2023-01-26T01:15:43.283Z,0.49
2023-01-26T01:19:26.038Z,0.48
2023-01-26T01:23:08.762Z,0.45
2023-01-26T01:26:51.396Z,0.49
2023-01-26T01:30:35.406Z,0.49
2023-01-26T01:34:18.085Z,0.39
2023-01-26T01:38:00.739Z,0.32
2023-01-26T01:41:43.437Z,0.21
2023-01-26T01:45:41.555Z,0.21
2023-01-26T01:49:27.630Z,0.25
2023-01-26T01:53:13.626Z,0.28
2023-01-26T01:56:59.536Z,0.32
2023-01-26T02:00:43.834Z,0.37
2023-01-26T02:04:27.272Z,0.29
2023-01-26T02:08:11.081Z,0.20
2023-01-26T02:11:53.782Z,0.21
2023-01-26T02:15:36.813Z,0.20
2023-01-26T02:19:27.619Z,0.15
2023-01-26T02:23:20.488Z,0.03
2023-01-26T02:27:04.739Z,-0.04
2023-01-26T02:30:47.756Z,-0.06
2023-01-26T02:34:30.452Z,-0.03
2023-01-26T02:38:13.219Z,-0.01
2023-01-26T02:42:13.926Z,0.07
2023-01-26T02:45:58.104Z,0.02
2023-01-26T02:49:50.755Z,-0.15
2023-01-26T02:53:33.645Z,-0.36
2023-01-26T02:57:16.297Z,-0.44
2023-01-26T03:01:00.360Z,-0.43
2023-01-26T03:04:43.783Z,-0.37
2023-01-26T03:08:26.755Z,-0.35
2023-01-26T03:12:09.502Z,-0.34
2023-01-26T03:15:54.709Z,-0.33
2023-01-26T03:19:56.114Z,-0.30
2023-01-26T03:23:56.588Z,-0.31
2023-01-26T03:27:43.425Z,-0.25
2023-01-26T03:31:26.147Z,-0.20
2023-01-26T03:35:15.968Z,-0.24
2023-01-26T03:38:58.695Z,-0.20
2023-01-26T03:42:59.144Z,-0.15
2023-01-26T03:46:59.194Z,-0.11
2023-01-26T03:51:00.587Z,-0.08
2023-01-26T03:55:01.056Z,-0.18
2023-01-26T03:58:43.712Z,-0.36
2023-01-26T04:02:44.157Z,-0.37
2023-01-26T04:06:45.936Z,-0.39
2023-01-26T04:10:28.994Z,-0.31
2023-01-26T04:14:30.215Z,-0.37
2023-01-26T04:18:34.364Z,-0.35
2023-01-26T04:22:18.376Z,-0.30
2023-01-26T04:26:01.020Z,-0.23
2023-01-26T04:29:43.720Z,-0.14
2023-01-26T04:33:26.424Z,-0.06
2023-01-26T04:37:10.413Z,-0.01
2023-01-26T04:40:55.679Z,0.03
2023-01-26T04:44:38.362Z,0.03
2023-01-26T04:48:21.046Z,0.04
2023-01-26T04:52:03.727Z,0.09
2023-01-26T04:55:46.378Z,0.13
2023-01-26T04:59:30.688Z,0.09
2023-01-26T05:03:13.335Z,0.08
2023-01-26T05:06:56.112Z,0.04
2023-01-26T05:10:38.852Z,0.01
2023-01-26T05:14:21.481Z,0.09
2023-01-26T05:18:06.149Z,-0.03
2023-01-26T05:21:48.853Z,-0.10
2023-01-26T05:25:31.816Z,-0.11
2023-01-26T05:29:14.746Z,-0.09
2023-01-26T05:33:02.016Z,-0.17
2023-01-26T05:36:46.052Z,-0.13
2023-01-26T05:40:28.821Z,-0.09
2023-01-26T05:44:11.704Z,-0.06
2023-01-26T05:47:54.428Z,-0.26
2023-01-26T05:51:37.074Z,-0.25
2023-01-26T05:55:21.244Z,-0.37
2023-01-26T05:59:03.948Z,-0.39
2023-01-26T06:02:48.611Z,-0.40
2023-01-26T06:06:31.475Z,-0.42
2023-01-26T06:10:14.337Z,-0.37
2023-01-26T06:13:58.386Z,-0.31
2023-01-26T06:17:41.222Z,-0.30
2023-01-26T06:21:23.879Z,-0.28
2023-01-26T06:25:07.031Z,-0.27
2023-01-26T06:28:49.768Z,-0.22
2023-01-26T06:32:33.695Z,-0.24
2023-01-26T06:36:16.668Z,-0.18
2023-01-26T06:39:59.493Z,-0.18
2023-01-26T06:43:45.635Z,-0.11
2023-01-26T06:47:28.358Z,-0.10
2023-01-26T06:51:46.439Z,-0.14
2023-01-26T06:55:35.769Z,-0.16
2023-01-26T06:59:18.449Z,-0.22
2023-01-26T07:03:01.216Z,-0.22
2023-01-26T07:06:43.991Z,-0.19
2023-01-26T07:10:26.658Z,-0.26
2023-01-26T07:14:10.621Z,-0.20
2023-01-26T07:17:54.527Z,-0.14
2023-01-26T07:21:39.102Z,-0.06
2023-01-26T07:25:21.822Z,0.04
2023-01-26T07:29:04.495Z,-0.03
2023-01-26T07:32:48.587Z,-0.03
2023-01-26T07:36:31.308Z,0.03
2023-01-26T07:40:14.461Z,0.02
2023-01-26T07:43:57.274Z,-0.07
2023-01-26T07:47:39.906Z,-0.07
2023-01-26T07:51:23.930Z,-0.12
2023-01-26T07:55:07.531Z,-0.28
2023-01-26T07:58:51.563Z,-0.37
2023-01-26T08:02:34.386Z,-0.26
2023-01-26T08:06:18.431Z,-0.14
2023-01-26T08:10:02.816Z,-0.06
2023-01-26T08:13:45.470Z,-0.01
2023-01-26T08:17:29.626Z,0.06
2023-01-26T08:21:12.515Z,0.10
2023-01-26T08:24:55.126Z,0.14
2023-01-26T08:28:39.078Z,0.14
2023-01-26T08:32:21.744Z,0.13
2023-01-26T08:36:05.315Z,0.19
2023-01-26T08:39:47.962Z,0.20
2023-01-26T08:43:31.061Z,0.14
2023-01-26T08:47:15.073Z,0.05
2023-01-26T08:50:58.621Z,0.02
2023-01-26T08:54:41.291Z,0.04
2023-01-26T08:58:23.992Z,0.08
2023-01-26T09:02:07.025Z,0.12
2023-01-26T09:05:51.065Z,0.13
2023-01-26T09:09:34.443Z,0.15
2023-01-26T09:13:17.115Z,0.22
2023-01-26T09:16:59.803Z,0.24
2023-01-26T09:20:42.511Z,0.24
2023-01-26T09:24:26.690Z,0.29
2023-01-26T09:28:09.389Z,0.32
2023-01-26T09:31:52.238Z,0.34
2023-01-26T09:35:34.926Z,0.36
2023-01-26T09:39:20.622Z,0.27
2023-01-26T09:43:18.576Z,0.22
2023-01-26T09:47:07.797Z,0.26
2023-01-26T09:50:55.637Z,0.32
2023-01-26T09:54:41.359Z,0.38
2023-01-26T09:58:33.478Z,0.36
2023-01-26T10:02:26.895Z,0.38
2023-01-26T10:06:15.445Z,0.38
2023-01-26T10:09:58.455Z,0.41
2023-01-26T10:13:46.277Z,0.41
2023-01-26T10:17:32.733Z,0.40
2023-01-26T10:21:16.840Z,0.45
2023-01-26T10:25:01.128Z,0.16
2023-01-26T10:28:46.750Z,0.08
2023-01-26T10:32:29.478Z,0.10
2023-01-26T10:36:13.670Z,0.01
2023-01-26T10:40:01.590Z,-0.05
2023-01-26T10:43:51.956Z,-0.21
2023-01-26T10:47:34.649Z,-0.22
2023-01-26T10:51:24.841Z,-0.28
2023-01-26T10:55:13.676Z,-0.21
2023-01-26T10:59:03.077Z,-0.24
2023-01-26T11:02:51.876Z,-0.25
2023-01-26T11:06:35.422Z,-0.18
2023-01-26T11:10:24.566Z,-0.12
2023-01-26T11:14:17.920Z,-0.11
2023-01-26T11:18:02.105Z,-0.09
2023-01-26T11:21:49.653Z,-0.05
2023-01-26T11:25:38.871Z,-0.06
2023-01-26T11:29:38.321Z,0.05
2023-01-26T11:33:28.716Z,0.01
2023-01-26T11:37:33.015Z,-0.04
2023-01-26T11:41:26.004Z,-0.10
2023-01-26T11:45:23.344Z,0.01
2023-01-26T11:49:17.240Z,-0.08
2023-01-26T11:53:15.984Z,-0.29
2023-01-26T11:57:07.364Z,-0.37
2023-01-26T12:00:53.920Z,-0.38
2023-01-26T12:04:39.168Z,-0.36
2023-01-26T12:08:24.985Z,-0.28
2023-01-26T12:12:11.764Z,-0.17
2023-01-26T12:15:59.371Z,-0.09
2023-01-26T12:19:46.243Z,-0.09
2023-01-26T12:23:33.387Z,-0.11
2023-01-26T12:27:19.753Z,-0.11
2023-01-26T12:31:08.042Z,-0.03
2023-01-26T12:34:51.122Z,-0.27
2023-01-26T12:38:42.008Z,-0.24
2023-01-26T12:42:31.174Z,-0.14
2023-01-26T12:46:15.735Z,-0.08
2023-01-26T12:50:01.999Z,-0.03
2023-01-26T12:53:50.728Z,0.01
2023-01-26T12:57:37.095Z,0.02
2023-01-26T13:01:23.799Z,0.06
2023-01-26T13:05:07.903Z,0.15
2023-01-26T13:08:54.668Z,0.31
2023-01-26T13:12:48.397Z,0.32
2023-01-26T13:16:36.115Z,0.17
2023-01-26T13:20:27.406Z,0.16
2023-01-26T13:24:43.516Z,0.24
2023-01-26T13:28:28.873Z,0.18
2023-01-26T13:36:47.685Z,0.17
2023-01-26T13:40:33.305Z,0.17
2023-01-26T13:44:18.387Z,0.27
2023-01-26T13:48:03.578Z,0.12
2023-01-26T13:51:47.736Z,0.04
2023-01-26T13:55:32.122Z,0.07
2023-01-26T13:59:16.575Z,0.13
2023-01-26T14:02:59.249Z,0.18
2023-01-26T14:06:43.415Z,0.21
2023-01-26T14:10:28.103Z,0.13
2023-01-26T14:14:20.912Z,0.15
2023-01-26T14:18:05.491Z,0.19
2023-01-26T14:21:51.152Z,0.16
2023-01-26T14:25:35.841Z,0.19
2023-01-26T14:29:22.564Z,0.14
2023-01-26T14:33:06.782Z,0.07
2023-01-26T14:36:49.581Z,0.04
2023-01-26T14:40:32.356Z,-0.03
2023-01-26T14:44:16.865Z,-0.01
2023-01-26T14:48:03.046Z,-0.13
2023-01-26T14:51:46.804Z,-0.19
2023-01-26T14:55:31.098Z,-0.13
2023-01-26T14:59:22.003Z,-0.16
2023-01-26T15:03:07.456Z,-0.56
2023-01-26T15:06:50.100Z,-0.52
2023-01-26T15:10:36.521Z,-0.54
2023-01-26T15:14:32.137Z,-0.55
2023-01-26T15:18:19.914Z,-0.58
2023-01-26T15:22:02.607Z,-0.61
2023-01-26T15:25:45.433Z,-0.67
2023-01-26T15:29:32.312Z,-0.78
2023-01-26T15:33:39.721Z,-0.75
2023-01-26T15:37:29.999Z,-0.68
2023-01-26T15:41:12.724Z,-0.64
2023-01-26T15:44:56.921Z,-0.63
2023-01-26T15:48:39.768Z,-0.74
2023-01-26T15:52:25.448Z,-0.84
2023-01-26T15:56:13.268Z,-0.87
2023-01-26T15:59:57.750Z,-0.89
2023-01-26T16:03:40.376Z,-0.77
2023-01-26T16:07:23.061Z,-0.63
2023-01-26T16:11:09.674Z,-0.62
2023-01-26T16:14:52.358Z,-0.65
2023-01-26T16:18:36.566Z,-0.63
2023-01-26T16:22:19.336Z,-0.66
2023-01-26T16:26:01.998Z,-0.69
2023-01-26T16:29:44.700Z,-0.74
2023-01-26T16:33:27.482Z,-0.67
2023-01-26T16:37:11.784Z,-0.71
2023-01-26T16:40:54.865Z,-0.73
2023-01-26T16:44:37.536Z,-0.75
2023-01-26T16:48:20.342Z,-0.70
2023-01-26T16:52:03.128Z,-0.60
2023-01-26T16:55:47.185Z,-0.54
2023-01-26T16:59:30.006Z,-0.51
2023-01-26T17:03:13.846Z,-0.43
2023-01-26T17:06:56.640Z,-0.38
2023-01-26T17:10:51.864Z,-0.42
2023-01-26T17:14:43.771Z,-0.38
2023-01-26T17:18:27.122Z,-0.41
2023-01-26T17:22:09.770Z,-0.40
2023-01-26T17:25:58.499Z,-0.30
2023-01-26T17:29:42.206Z,-0.34
2023-01-26T17:33:26.433Z,-0.45
2023-01-26T17:37:09.505Z,-0.47
2023-01-26T17:40:55.611Z,-0.39
2023-01-26T17:44:38.365Z,-0.27
2023-01-26T17:48:20.976Z,-0.55
2023-01-26T17:52:06.210Z,-0.55
2023-01-26T17:55:48.811Z,-0.58
2023-01-26T17:59:31.512Z,-0.46
2023-01-26T18:03:14.291Z,-0.29
2023-01-26T18:06:57.003Z,-0.24
2023-01-26T18:10:41.312Z,-0.21
2023-01-26T18:14:24.006Z,-0.35
2023-01-26T18:18:06.834Z,-0.34
2023-01-26T18:21:51.193Z,-0.33
2023-01-26T18:25:34.706Z,-0.37
2023-01-26T18:29:18.810Z,-0.31
2023-01-26T18:33:01.565Z,-0.33
2023-01-26T18:36:44.230Z,-0.29
2023-01-26T18:40:26.921Z,-0.25
2023-01-26T18:44:09.684Z,-0.19
2023-01-26T18:47:53.660Z,-0.24
2023-01-26T18:51:37.192Z,-0.34
2023-01-26T18:55:22.528Z,-0.34
2023-01-26T18:59:06.412Z,-0.33
2023-01-26T19:02:49.084Z,-0.34
2023-01-26T19:06:33.641Z,-0.31
2023-01-26T19:10:17.222Z,-0.26
2023-01-26T19:14:01.283Z,-0.14
2023-01-26T19:17:44.920Z,-0.19
2023-01-26T19:21:28.109Z,-0.24
2023-01-26T19:25:12.812Z,-0.24
2023-01-26T19:28:55.840Z,-0.20
2023-01-26T19:32:38.556Z,-0.22
2023-01-26T19:36:21.382Z,-0.20
2023-01-26T19:40:04.223Z,-0.10
2023-01-26T19:43:50.355Z,-0.09
2023-01-26T19:47:33.343Z,-0.16
2023-01-26T19:51:17.739Z,-0.26
2023-01-26T19:55:00.408Z,-0.34
2023-01-26T19:58:43.869Z,-0.33
2023-01-26T20:02:27.885Z,-0.40
2023-01-26T20:06:15.847Z,-0.36
2023-01-26T20:09:58.525Z,-0.41
2023-01-26T20:13:41.293Z,-0.38
2023-01-26T20:17:23.915Z,-0.40
2023-01-26T20:21:08.206Z,-0.30
2023-01-26T20:24:50.882Z,-0.32
2023-01-26T20:28:33.716Z,-0.35
2023-01-26T20:32:16.342Z,-0.53
2023-01-26T20:35:58.977Z,-0.65
2023-01-26T20:39:45.419Z,-0.63
2023-01-26T20:43:29.488Z,-0.57
2023-01-26T20:47:12.515Z,-0.53
2023-01-26T20:50:55.177Z,-0.33
2023-01-26T20:54:37.897Z,-0.31
2023-01-26T20:58:22.038Z,-0.44
2023-01-26T21:02:05.241Z,-0.51
2023-01-26T21:05:47.923Z,-0.48
2023-01-26T21:09:30.557Z,-0.61
2023-01-26T21:13:13.323Z,-0.69
2023-01-26T21:16:57.382Z,-0.64
2023-01-26T21:20:40.061Z,-0.68
2023-01-26T21:24:23.237Z,-0.76
2023-01-26T21:28:06.246Z,-0.63
2023-01-26T21:31:51.999Z,-0.69
2023-01-26T21:35:36.085Z,-0.78
2023-01-26T21:39:21.117Z,-0.79
2023-01-26T21:43:04.772Z,-0.72
2023-01-26T21:46:48.766Z,-0.63
2023-01-26T21:50:51.411Z,-0.60
2023-01-26T21:54:35.828Z,-0.58
2023-01-26T21:58:36.122Z,-0.54
2023-01-26T22:02:18.772Z,-0.52
2023-01-26T22:06:01.523Z,-0.71
2023-01-26T22:09:45.584Z,-0.69
2023-01-26T22:13:31.326Z,-0.18
2023-01-26T22:17:13.976Z,0.04
2023-01-26T22:20:56.833Z,0.07
2023-01-26T22:24:39.942Z,0.08
2023-01-26T22:28:24.025Z,0.02
2023-01-26T22:32:06.827Z,-0.09
2023-01-26T22:35:49.563Z,-0.09
2023-01-26T22:39:32.209Z,-0.09
2023-01-26T22:43:14.898Z,-0.13
2023-01-26T22:46:58.922Z,-0.15
2023-01-26T22:50:41.595Z,-0.16
2023-01-26T22:54:24.250Z,-0.13
2023-01-26T22:58:06.892Z,-0.19
2023-01-26T23:01:49.572Z,-0.28
2023-01-26T23:05:34.209Z,-0.34
2023-01-26T23:09:16.858Z,-0.36
2023-01-26T23:12:59.549Z,-0.40
2023-01-26T23:16:42.297Z,-0.45
2023-01-26T23:20:24.931Z,-0.47
2023-01-26T23:24:09.742Z,-0.47
2023-01-26T23:27:52.472Z,-0.53
2023-01-26T23:31:35.217Z,-0.55
2023-01-26T23:35:18.456Z,-0.54
2023-01-26T23:39:01.149Z,-0.53
2023-01-26T23:43:06.906Z,-0.49
2023-01-26T23:46:50.913Z,-0.48
2023-01-26T23:50:33.690Z,-0.49
2023-01-26T23:54:16.497Z,-0.46
2023-01-26T23:58:00.541Z,-0.51
